createdAt,value
2017-10-23T00:00:45.992Z,13.52
2017-10-23T00:03:18.108Z,13.62
2017-10-23T00:05:50.225Z,13.75
2017-10-23T00:08:21.670Z,13.59
2017-10-23T00:16:31.880Z,13.59
2017-10-23T00:19:04.854Z,13.53
2017-10-23T00:24:34.747Z,13.48
2017-10-23T00:29:43.349Z,13.50
2017-10-23T00:32:20.836Z,13.50
2017-10-23T00:34:54.344Z,13.44
2017-10-23T00:37:25.359Z,13.52
2017-10-23T00:42:54.269Z,13.57
2017-10-23T00:45:44.601Z,13.66
2017-10-23T00:48:15.673Z,13.58
2017-10-23T00:50:46.683Z,13.72
2017-10-23T00:53:18.692Z,13.59
2017-10-23T00:55:49.983Z,13.33
2017-10-23T00:58:27.503Z,13.49
2017-10-23T01:03:37.887Z,13.53
2017-10-23T01:06:10.680Z,13.61
2017-10-23T01:08:43.425Z,13.57
2017-10-23T01:11:14.589Z,13.51
2017-10-23T01:13:45.587Z,13.43
2017-10-23T01:16:18.390Z,13.52
2017-10-23T01:18:51.668Z,13.63
2017-10-23T01:21:24.986Z,13.60
2017-10-23T01:23:56.553Z,13.58
2017-10-23T01:26:27.643Z,13.62
2017-10-23T01:28:59.037Z,13.70
2017-10-23T01:31:30.879Z,13.70
2017-10-23T01:34:02.676Z,13.74
2017-10-23T01:36:36.054Z,13.56
2017-10-23T01:39:08.638Z,13.68
2017-10-23T01:41:40.930Z,13.51
2017-10-23T01:44:12.059Z,13.52
2017-10-23T01:46:43.857Z,13.61
2017-10-23T01:49:15.872Z,13.68
2017-10-23T01:51:52.470Z,13.74
2017-10-23T01:54:31.476Z,13.67
2017-10-23T01:57:05.564Z,13.53
2017-10-23T01:59:40.930Z,13.34
2017-10-23T02:02:13.398Z,13.36
2017-10-23T02:04:45.095Z,13.38
2017-10-23T02:07:16.492Z,13.35
2017-10-23T02:09:48.284Z,13.35
2017-10-23T02:12:20.489Z,13.28
2017-10-23T02:15:27.989Z,13.20
2017-10-23T02:18:02.987Z,13.22
2017-10-23T02:20:39.894Z,13.30
2017-10-23T02:23:15.996Z,13.28
2017-10-23T02:25:51.617Z,13.34
2017-10-23T02:28:27.293Z,13.35
2017-10-23T02:31:03.980Z,13.28
2017-10-23T02:33:48.022Z,13.19
2017-10-23T02:39:09.646Z,13.10
2017-10-23T02:41:45.063Z,13.22
2017-10-23T02:44:21.251Z,13.21
2017-10-23T02:46:56.968Z,13.23
2017-10-23T02:49:30.947Z,13.27
2017-10-23T02:52:06.596Z,13.30
2017-10-23T02:54:49.106Z,13.31
2017-10-23T02:57:24.978Z,13.25
2017-10-23T03:00:01.109Z,13.26
2017-10-23T03:02:48.889Z,13.19
2017-10-23T03:05:24.387Z,13.26
2017-10-23T03:08:00.907Z,13.42
2017-10-23T03:10:37.609Z,13.46
2017-10-23T03:13:14.126Z,13.54
2017-10-23T03:15:50.105Z,13.53
2017-10-23T03:18:24.106Z,13.54
2017-10-23T03:21:05.135Z,13.56
2017-10-23T03:23:46.313Z,13.60
2017-10-23T03:26:27.796Z,13.65
2017-10-23T03:29:21.363Z,13.58
2017-10-23T03:32:07.300Z,13.55
2017-10-23T03:35:00.614Z,13.57
2017-10-23T03:37:37.705Z,13.55
2017-10-23T03:40:14.468Z,13.64
2017-10-23T03:42:49.670Z,13.68
2017-10-23T03:45:25.566Z,13.66
2017-10-23T03:48:02.470Z,13.67
2017-10-23T03:50:38.155Z,13.77
2017-10-23T03:53:18.750Z,13.79
2017-10-23T03:55:54.357Z,13.82
2017-10-23T03:58:30.370Z,13.84
2017-10-23T04:01:06.456Z,13.86
2017-10-23T04:03:49.064Z,13.78
2017-10-23T04:06:24.176Z,13.83
2017-10-23T04:08:59.823Z,13.84
2017-10-23T04:11:34.294Z,13.75
2017-10-23T04:14:11.569Z,13.71
2017-10-23T04:16:47.799Z,13.57
2017-10-23T04:19:22.784Z,13.68
2017-10-23T04:22:11.281Z,13.64
2017-10-23T04:24:48.204Z,13.62
2017-10-23T04:27:23.608Z,13.72
2017-10-23T04:29:58.951Z,13.73
2017-10-23T04:32:34.504Z,13.84
2017-10-23T04:35:29.689Z,13.69
2017-10-23T04:38:05.801Z,13.66
2017-10-23T04:40:48.085Z,13.76
2017-10-23T04:43:24.388Z,13.78
2017-10-23T04:46:01.178Z,13.69
2017-10-23T04:48:37.795Z,13.53
2017-10-23T04:51:14.163Z,13.61
2017-10-23T04:54:04.459Z,13.71
2017-10-23T04:57:01.387Z,13.63
2017-10-23T04:59:55.705Z,13.77
2017-10-23T05:02:40.275Z,13.77
2017-10-23T05:05:15.768Z,13.83
2017-10-23T05:07:52.249Z,13.78
2017-10-23T05:10:27.572Z,13.78
2017-10-23T05:13:02.679Z,13.81
2017-10-23T05:15:39.463Z,13.76
2017-10-23T05:18:15.080Z,13.77
2017-10-23T05:20:51.339Z,13.76
2017-10-23T05:23:28.087Z,13.80
2017-10-23T05:26:11.296Z,13.66
2017-10-23T05:28:48.060Z,13.92
2017-10-23T05:32:06.320Z,13.99
2017-10-23T05:34:44.294Z,13.93
2017-10-23T05:37:20.317Z,13.86
2017-10-23T05:40:13.997Z,13.85
2017-10-23T05:42:55.898Z,13.70
2017-10-23T05:45:34.781Z,13.76
2017-10-23T05:48:18.644Z,13.73
2017-10-23T05:50:54.777Z,13.69
2017-10-23T05:53:30.575Z,13.78
2017-10-23T05:59:19.683Z,13.76
2017-10-23T06:01:56.042Z,13.72
2017-10-23T06:04:31.630Z,13.88
2017-10-23T06:07:12.903Z,13.72
2017-10-23T06:09:58.121Z,13.78
2017-10-23T06:12:43.321Z,13.83
2017-10-23T06:15:24.084Z,13.77
2017-10-23T06:17:59.868Z,13.74
2017-10-23T06:20:35.883Z,13.80
2017-10-23T06:23:12.692Z,13.85
2017-10-23T06:25:48.106Z,13.81
2017-10-23T06:28:24.567Z,13.90
2017-10-23T06:31:00.502Z,13.95
2017-10-23T06:33:48.505Z,13.90
2017-10-23T06:36:35.723Z,13.80
2017-10-23T06:39:43.908Z,13.90
2017-10-23T06:42:18.728Z,13.90
2017-10-23T06:44:52.316Z,13.96
2017-10-23T06:47:28.604Z,14.02
2017-10-23T06:50:19.151Z,13.87
2017-10-23T06:53:02.353Z,14.00
2017-10-23T06:56:11.566Z,13.85
2017-10-23T06:59:30.311Z,13.91
2017-10-23T07:02:08.319Z,13.93
2017-10-23T07:04:51.328Z,13.84
2017-10-23T07:07:28.797Z,13.87
2017-10-23T07:10:09.194Z,13.91
2017-10-23T07:12:46.305Z,14.05
2017-10-23T07:15:21.989Z,14.05
2017-10-23T07:17:57.538Z,13.91
2017-10-23T07:20:35.885Z,14.03
2017-10-23T07:26:12.608Z,14.06
2017-10-23T07:28:53.532Z,14.00
2017-10-23T07:31:32.087Z,14.10
2017-10-23T07:34:52.785Z,14.16
2017-10-23T07:37:29.395Z,14.21
2017-10-23T07:40:05.958Z,14.39
2017-10-23T07:42:41.456Z,14.55
2017-10-23T07:45:20.645Z,14.34
2017-10-23T07:47:56.964Z,14.33
2017-10-23T07:50:44.503Z,14.42
2017-10-23T07:53:20.333Z,14.56
2017-10-23T07:55:56.647Z,14.47
2017-10-23T07:58:37.263Z,14.25
2017-10-23T08:01:15.357Z,14.31
2017-10-23T08:03:52.303Z,14.47
2017-10-23T08:06:32.775Z,14.31
2017-10-23T08:09:17.004Z,14.39
2017-10-23T08:11:59.118Z,14.50
2017-10-23T08:15:16.191Z,14.56
2017-10-23T08:17:51.985Z,14.72
2017-10-23T08:20:44.769Z,14.71
2017-10-23T08:23:24.661Z,14.99
2017-10-23T08:26:03.296Z,15.04
2017-10-23T08:28:42.480Z,15.05
2017-10-23T08:31:19.092Z,15.52
2017-10-23T08:33:55.506Z,16.14
2017-10-23T08:36:59.633Z,16.00
2017-10-23T08:39:37.614Z,15.95
2017-10-23T08:42:19.470Z,15.88
2017-10-23T08:44:56.882Z,16.30
2017-10-23T08:47:34.049Z,16.94
2017-10-23T08:50:17.461Z,16.82
2017-10-23T08:52:53.514Z,16.56
2017-10-23T08:55:29.020Z,16.69
2017-10-23T08:58:06.524Z,16.42
2017-10-23T09:00:44.379Z,15.85
2017-10-23T09:03:25.025Z,15.96
2017-10-23T09:06:01.729Z,16.18
2017-10-23T09:08:43.473Z,16.41
2017-10-23T09:11:19.777Z,16.42
2017-10-23T09:14:05.480Z,16.40
2017-10-23T09:16:42.527Z,16.27
2017-10-23T09:19:23.737Z,16.16
2017-10-23T09:21:58.057Z,15.96
2017-10-23T09:24:34.855Z,15.93
2017-10-23T09:27:14.173Z,16.16
2017-10-23T09:29:48.240Z,15.81
2017-10-23T09:32:27.268Z,15.89
2017-10-23T09:38:33.464Z,15.93
2017-10-23T09:41:27.996Z,15.93
2017-10-23T09:44:26.070Z,16.38
2017-10-23T09:52:41.721Z,16.44
2017-10-23T09:58:34.126Z,16.18
2017-10-23T10:01:16.491Z,15.85
2017-10-23T10:03:51.236Z,15.58
2017-10-23T10:06:26.384Z,15.46
2017-10-23T10:09:01.756Z,15.45
2017-10-23T10:11:42.466Z,15.65
2017-10-23T10:14:31.111Z,15.87
2017-10-23T10:17:10.289Z,15.85
2017-10-23T10:22:17.497Z,15.67
2017-10-23T10:24:51.293Z,15.59
2017-10-23T10:27:25.108Z,15.75
2017-10-23T10:30:00.072Z,15.87
2017-10-23T10:32:48.638Z,15.96
2017-10-23T10:35:30.170Z,15.73
2017-10-23T10:38:11.622Z,15.53
2017-10-23T10:40:44.665Z,15.47
2017-10-23T10:43:17.383Z,15.28
2017-10-23T10:45:50.199Z,15.50
2017-10-23T10:48:27.443Z,15.54
2017-10-23T10:51:04.087Z,15.63
2017-10-23T10:53:37.967Z,15.72
2017-10-23T10:56:12.486Z,15.78
2017-10-23T10:58:56.461Z,15.82
2017-10-23T11:01:29.509Z,15.79
2017-10-23T11:04:33.352Z,15.64
2017-10-23T11:07:26.987Z,15.69
2017-10-23T11:10:19.717Z,16.66
2017-10-23T11:12:54.108Z,18.30
2017-10-23T11:15:39.159Z,18.48
2017-10-23T11:18:18.172Z,17.58
2017-10-23T11:23:55.119Z,17.23
2017-10-23T11:26:30.821Z,17.29
2017-10-23T11:29:05.909Z,17.33
2017-10-23T11:31:42.232Z,17.07
2017-10-23T11:34:18.516Z,16.97
2017-10-23T11:36:51.088Z,16.73
2017-10-23T11:39:46.282Z,16.62
2017-10-23T11:42:22.200Z,16.84
2017-10-23T11:44:59.865Z,16.66
2017-10-23T11:50:28.217Z,16.91
2017-10-23T11:53:09.787Z,16.88
2017-10-23T11:55:43.592Z,16.82
2017-10-23T12:01:39.434Z,16.54
2017-10-23T12:05:24.440Z,16.55
2017-10-23T12:08:01.811Z,16.74
2017-10-23T12:11:05.697Z,16.87
2017-10-23T12:13:55.666Z,16.88
2017-10-23T12:16:29.838Z,16.69
2017-10-23T12:19:06.473Z,16.77
2017-10-23T12:21:57.962Z,16.67
2017-10-23T12:24:33.981Z,16.69
2017-10-23T12:27:10.030Z,16.67
2017-10-23T12:29:44.561Z,16.87
2017-10-23T12:32:25.020Z,16.94
2017-10-23T12:35:04.150Z,16.79
2017-10-23T12:37:43.585Z,16.64
2017-10-23T12:40:17.567Z,16.56
2017-10-23T12:42:57.095Z,16.49
2017-10-23T12:45:33.378Z,16.63
2017-10-23T12:48:10.357Z,16.61
2017-10-23T12:50:50.131Z,16.52
2017-10-23T12:53:28.480Z,16.59
2017-10-23T12:56:26.814Z,16.52
2017-10-23T12:59:14.276Z,16.69
2017-10-23T13:01:49.830Z,16.94
2017-10-23T13:04:29.486Z,17.05
2017-10-23T13:09:59.697Z,17.11
2017-10-23T13:12:41.801Z,17.07
2017-10-23T13:15:22.637Z,17.01
2017-10-23T13:18:00.941Z,16.88
2017-10-23T13:20:34.971Z,16.84
2017-10-23T13:23:14.407Z,16.85
2017-10-23T13:25:50.055Z,16.90
2017-10-23T13:28:26.784Z,16.78
2017-10-23T13:33:51.835Z,16.98
2017-10-23T13:36:43.393Z,16.97
2017-10-23T13:39:19.110Z,16.83
2017-10-23T13:41:56.633Z,16.79
2017-10-23T13:44:30.859Z,16.94
2017-10-23T13:47:03.245Z,17.12
2017-10-23T13:52:40.721Z,17.09
2017-10-23T13:55:21.258Z,17.23
2017-10-23T14:01:13.482Z,17.00
2017-10-23T14:03:49.453Z,17.10
2017-10-23T14:06:28.458Z,17.07
2017-10-23T14:09:02.882Z,17.16
2017-10-23T14:11:34.967Z,16.83
2017-10-23T14:14:10.725Z,17.12
2017-10-23T14:16:52.751Z,17.12
2017-10-23T14:19:29.886Z,17.12
2017-10-23T14:22:13.815Z,17.07
2017-10-23T14:24:48.437Z,17.21
2017-10-23T14:27:28.014Z,17.23
2017-10-23T14:30:01.146Z,17.31
2017-10-23T14:33:27.215Z,17.50
2017-10-23T14:36:01.561Z,17.54
2017-10-23T14:41:13.649Z,17.52
2017-10-23T14:43:47.233Z,17.62
2017-10-23T14:46:21.496Z,17.51
2017-10-23T14:48:54.310Z,17.63
2017-10-23T14:51:26.407Z,17.63
2017-10-23T14:53:59.602Z,17.76
2017-10-23T14:56:32.695Z,17.63
2017-10-23T14:59:04.588Z,17.61
2017-10-23T15:01:36.688Z,17.69
2017-10-23T15:04:22.350Z,17.73
2017-10-23T15:06:55.604Z,17.64
2017-10-23T15:09:30.589Z,17.82
2017-10-23T15:12:03.085Z,17.82
2017-10-23T15:14:47.966Z,17.86
2017-10-23T15:17:38.918Z,17.76
2017-10-23T15:20:13.261Z,17.52
2017-10-23T15:22:48.490Z,17.42
2017-10-23T15:25:24.093Z,17.51
2017-10-23T15:27:57.402Z,17.49
2017-10-23T15:33:28.218Z,17.43
2017-10-23T15:36:00.625Z,17.41
2017-10-23T15:38:33.828Z,17.43
2017-10-23T15:41:17.321Z,17.40
2017-10-23T15:44:16.937Z,17.28
2017-10-23T15:46:52.929Z,17.23
2017-10-23T15:49:25.146Z,17.27
2017-10-23T15:52:25.920Z,17.16
2017-10-23T15:55:00.736Z,17.03
2017-10-23T15:57:32.844Z,17.05
2017-10-23T16:00:45.630Z,16.98
2017-10-23T16:04:29.114Z,17.00
2017-10-23T16:07:02.539Z,16.92
2017-10-23T16:09:36.151Z,17.02
2017-10-23T16:12:09.298Z,16.96
2017-10-23T16:15:06.588Z,17.03
2017-10-23T16:17:58.998Z,17.00
2017-10-23T16:20:32.501Z,17.10
2017-10-23T16:23:06.407Z,17.10
2017-10-23T16:29:00.005Z,17.14
2017-10-23T16:31:36.827Z,17.14
2017-10-23T16:34:10.446Z,17.31
2017-10-23T16:36:43.671Z,17.26
2017-10-23T16:39:35.519Z,17.26
2017-10-23T16:42:10.013Z,17.21
2017-10-23T16:44:52.819Z,17.30
2017-10-23T16:47:48.304Z,17.29
2017-10-23T16:55:26.324Z,16.88
2017-10-23T16:58:05.238Z,16.88
2017-10-23T17:03:41.145Z,17.04
2017-10-23T17:06:30.125Z,17.06
2017-10-23T17:09:21.497Z,16.90
2017-10-23T17:12:11.723Z,16.93
2017-10-23T17:14:47.525Z,16.84
2017-10-23T17:17:25.251Z,16.84
2017-10-23T17:20:01.429Z,16.86
2017-10-23T17:22:39.289Z,16.71
2017-10-23T17:25:16.675Z,16.69
2017-10-23T17:27:53.645Z,16.57
2017-10-23T17:30:36.144Z,16.64
2017-10-23T17:33:16.955Z,16.60
2017-10-23T17:35:51.500Z,16.50
2017-10-23T17:38:35.380Z,16.51
2017-10-23T17:41:32.332Z,16.56
2017-10-23T17:44:32.878Z,16.65
2017-10-23T17:47:10.595Z,16.56
2017-10-23T17:49:46.467Z,16.49
2017-10-23T17:52:24.170Z,16.42
2017-10-23T17:54:57.750Z,16.54
2017-10-23T17:57:32.736Z,16.49
2017-10-23T18:00:19.098Z,16.48
2017-10-23T18:02:59.475Z,16.34
2017-10-23T18:05:53.920Z,16.27
2017-10-23T18:08:28.085Z,16.28
2017-10-23T18:11:01.955Z,16.20
2017-10-23T18:13:36.584Z,16.35
2017-10-23T18:16:16.759Z,16.45
2017-10-23T18:18:58.097Z,16.48
2017-10-23T18:21:37.033Z,16.45
2017-10-23T18:24:12.621Z,16.55
2017-10-23T18:26:46.987Z,16.45
2017-10-23T18:29:26.975Z,16.11
2017-10-23T18:32:12.264Z,16.20
2017-10-23T18:37:22.561Z,16.18
2017-10-23T18:39:56.935Z,16.22
2017-10-23T18:45:30.317Z,16.49
2017-10-23T18:48:41.989Z,16.51
2017-10-23T18:52:58.740Z,16.52
2017-10-23T18:58:44.395Z,16.67
2017-10-23T19:01:23.468Z,16.71
2017-10-23T19:03:57.976Z,16.66
2017-10-23T19:14:52.137Z,16.73
2017-10-23T19:17:27.567Z,16.76
2017-10-23T19:20:02.940Z,16.56
2017-10-23T19:22:37.292Z,16.65
2017-10-23T19:28:25.768Z,16.75
2017-10-23T19:31:03.595Z,16.65
2017-10-23T19:33:38.336Z,16.59
2017-10-23T19:39:35.452Z,16.53
2017-10-23T19:42:09.414Z,16.45
2017-10-23T19:44:50.563Z,16.42
2017-10-23T19:47:28.196Z,16.35
2017-10-23T19:53:01.535Z,16.18
2017-10-23T19:55:48.272Z,16.32
2017-10-23T19:58:36.303Z,16.36
2017-10-23T20:07:21.567Z,16.07
2017-10-23T20:09:57.671Z,16.10
2017-10-23T20:12:34.794Z,15.98
2017-10-23T20:15:17.394Z,15.99
2017-10-23T20:17:56.546Z,16.36
2017-10-23T20:23:26.765Z,16.55
2017-10-23T20:26:07.578Z,16.57
2017-10-23T20:28:48.041Z,16.75
2017-10-23T20:31:22.120Z,16.73
2017-10-23T20:33:55.645Z,16.71
2017-10-23T20:36:34.482Z,16.55
2017-10-23T20:39:17.117Z,16.48
2017-10-23T20:41:49.286Z,16.49
2017-10-23T20:44:28.153Z,16.67
2017-10-23T20:47:00.575Z,16.67
2017-10-23T20:49:36.976Z,16.66
2017-10-23T20:52:12.791Z,16.60
2017-10-23T20:54:47.693Z,16.44
2017-10-23T20:57:19.144Z,16.41
2017-10-23T20:59:53.382Z,16.66
2017-10-23T21:02:26.309Z,16.74
2017-10-23T21:04:58.393Z,16.86
2017-10-23T21:07:30.598Z,16.74
2017-10-23T21:10:04.382Z,16.56
2017-10-23T21:12:37.058Z,16.37
2017-10-23T21:16:48.349Z,16.48
2017-10-23T21:19:24.148Z,16.62
2017-10-23T21:21:56.243Z,16.54
2017-10-23T21:24:29.341Z,16.50
2017-10-23T21:27:03.771Z,16.47
2017-10-23T21:29:36.393Z,16.59
2017-10-23T21:38:01.031Z,16.56
2017-10-23T21:40:34.430Z,16.67
2017-10-23T21:43:13.941Z,16.46
2017-10-23T21:46:03.157Z,16.33
2017-10-23T21:48:35.167Z,16.40
2017-10-23T21:51:08.313Z,16.52
2017-10-23T21:53:51.570Z,16.53
2017-10-23T21:56:26.300Z,16.42
2017-10-23T21:58:58.972Z,16.56
2017-10-23T22:01:35.125Z,16.51
2017-10-23T22:04:31.041Z,15.94
2017-10-23T22:07:08.717Z,16.02
2017-10-23T22:12:34.775Z,15.66
2017-10-23T22:15:13.507Z,16.11
2017-10-23T22:17:46.478Z,16.16
2017-10-23T22:20:19.753Z,15.99
2017-10-23T22:22:56.051Z,16.09
2017-10-23T22:25:29.494Z,16.06
2017-10-23T22:28:16.649Z,15.66
2017-10-23T22:30:49.556Z,16.06
2017-10-23T22:33:22.447Z,15.73
2017-10-23T22:35:56.202Z,15.68
2017-10-23T22:38:28.235Z,15.25
2017-10-23T22:41:04.517Z,15.55
2017-10-23T22:43:37.722Z,15.63
2017-10-23T22:46:11.935Z,15.84
2017-10-23T22:48:46.076Z,15.75
2017-10-23T22:51:18.530Z,15.94
2017-10-23T22:53:52.147Z,15.78
2017-10-23T22:56:26.273Z,15.96
2017-10-23T23:03:04.267Z,16.13
2017-10-23T23:05:46.909Z,15.18
2017-10-23T23:08:27.753Z,15.33
2017-10-23T23:11:01.234Z,15.73
2017-10-23T23:13:34.410Z,15.91
2017-10-23T23:16:11.522Z,15.93
2017-10-23T23:18:48.315Z,15.96
2017-10-23T23:21:27.128Z,16.02
2017-10-23T23:24:07.565Z,16.02
2017-10-23T23:26:46.817Z,16.15
2017-10-23T23:32:24.404Z,15.99
2017-10-23T23:34:57.743Z,16.06
2017-10-23T23:37:31.530Z,16.00
2017-10-23T23:40:07.521Z,15.94
2017-10-23T23:42:42.348Z,15.81
2017-10-23T23:45:23.022Z,15.80
2017-10-23T23:47:57.384Z,15.76
2017-10-23T23:50:31.012Z,15.83
2017-10-23T23:53:05.872Z,15.88
2017-10-23T23:56:00.023Z,15.85
2017-10-23T23:58:36.658Z,15.70
